Terminal Aerodrome Forecast
Issued by NWS

Home | Current Version | Previous Version | Text Only | Print | Product List | Glossary On
Versions: 1 2 3 4 5 6 7 8 9 10 11 12 13 14 15 16 17 18 19 20 21
000
FTUS43 KIND 041300 AAA
TAFBMG
TAF AMD
KBMG 041322Z 0413/0512 33006KT 5SM BR BKN015
      TEMPO 0413/0415 6SM BR SCT015 OVC050
     FM041500 33008KT P6SM BKN015
     FM042000 33011KT 1 1/2SM -SN BKN015 OVC040
     FM050100 34011KT P6SM BKN015 OVC050
     FM050300 34011KT P6SM SCT015 OVC080
      AMD LTD TO CLD VIS AND WIND TIL 041400=

USA.gov is the U.S. government's official web portal to all federal, state and local government web resources and services.